createdAt,value
2019-02-22T00:00:38.522Z,47.17
2019-02-22T00:03:08.938Z,45.97
2019-02-22T00:05:39.243Z,48.50
2019-02-22T00:08:09.694Z,48.20
2019-02-22T00:10:40.274Z,46.10
2019-02-22T00:13:10.604Z,47.60
2019-02-22T00:15:40.883Z,47.73
2019-02-22T00:18:11.176Z,47.85
2019-02-22T00:20:41.472Z,49.30
2019-02-22T00:23:11.692Z,44.77
2019-02-22T00:25:42.124Z,46.27
2019-02-22T00:28:12.341Z,46.18
2019-02-22T00:30:42.877Z,47.30
2019-02-22T00:33:13.122Z,48.50
2019-02-22T00:35:43.600Z,48.13
2019-02-22T00:38:14.181Z,47.27
2019-02-22T00:40:44.396Z,48.47
2019-02-22T00:43:14.603Z,47.03
2019-02-22T00:45:45.153Z,47.33
2019-02-22T00:48:15.499Z,47.07
2019-02-22T00:50:45.795Z,48.40
2019-02-22T00:53:17.233Z,47.63
2019-02-22T00:55:47.432Z,50.70
2019-02-22T00:58:17.645Z,48.73
2019-02-22T01:00:48.027Z,46.23
2019-02-22T01:03:18.106Z,48.17
2019-02-22T01:05:48.402Z,50.87
2019-02-22T01:08:18.623Z,49.93
2019-02-22T01:10:48.926Z,48.80
2019-02-22T01:13:19.286Z,50.20
2019-02-22T01:15:49.598Z,47.33
2019-02-22T01:18:19.805Z,47.55
2019-02-22T01:20:54.387Z,47.70
2019-02-22T01:23:22.080Z,47.40
2019-02-22T01:25:52.237Z,46.60
2019-02-22T01:28:22.526Z,46.83
2019-02-22T01:30:52.928Z,47.23
2019-02-22T01:41:22.112Z,49.45
2019-02-22T01:43:52.561Z,47.77
2019-02-22T01:46:22.788Z,51.13
2019-02-22T01:48:53.155Z,50.75
2019-02-22T01:51:23.619Z,50.87
2019-02-22T01:53:54.232Z,48.70
2019-02-22T01:56:24.583Z,47.65
2019-02-22T01:58:54.976Z,47.07
2019-02-22T02:01:25.319Z,47.73
2019-02-22T02:03:55.827Z,50.33
2019-02-22T02:06:26.241Z,49.47
2019-02-22T02:08:56.402Z,49.53
2019-02-22T02:11:26.576Z,49.33
2019-02-22T02:13:56.857Z,47.57
2019-02-22T02:16:27.275Z,46.77
2019-02-22T02:18:57.602Z,47.13
2019-02-22T02:21:28.005Z,49.40
2019-02-22T02:23:58.460Z,47.07
2019-02-22T02:26:29.012Z,45.23
2019-02-22T02:28:59.389Z,46.20
2019-02-22T02:31:29.670Z,43.03
2019-02-22T02:34:00.075Z,40.87
2019-02-22T02:36:30.322Z,44.67
2019-02-22T02:39:00.690Z,40.07
2019-02-22T02:41:31.197Z,42.53
2019-02-22T02:44:01.717Z,43.93
2019-02-22T02:46:32.054Z,44.33
2019-02-22T02:49:02.553Z,41.83
2019-02-22T02:51:32.954Z,40.30
2019-02-22T02:54:03.278Z,41.93
2019-02-22T02:56:33.625Z,41.67
2019-02-22T02:59:04.011Z,42.20
2019-02-22T03:01:34.536Z,42.03
2019-02-22T03:04:07.894Z,39.90
2019-02-22T03:06:43.723Z,41.73
2019-02-22T03:09:14.251Z,38.47
2019-02-22T03:11:44.653Z,38.80
2019-02-22T03:14:15.012Z,42.30
2019-02-22T03:16:45.160Z,36.93
2019-02-22T03:19:15.531Z,39.27
2019-02-22T03:21:45.843Z,40.23
2019-02-22T03:24:16.186Z,40.30
2019-02-22T03:26:46.404Z,38.13
2019-02-22T03:29:16.683Z,37.47
2019-02-22T03:31:46.912Z,35.63
2019-02-22T03:34:17.201Z,37.20
2019-02-22T03:36:47.571Z,37.13
2019-02-22T03:39:17.802Z,39.88
2019-02-22T03:41:48.181Z,38.93
2019-02-22T03:44:18.408Z,37.57
2019-02-22T03:46:48.657Z,39.87
2019-02-22T03:49:18.910Z,37.78
2019-02-22T03:51:49.169Z,37.67
2019-02-22T03:54:19.677Z,36.50
2019-02-22T03:56:50.222Z,36.67
2019-02-22T03:59:20.555Z,38.05
2019-02-22T04:01:50.874Z,38.60
2019-02-22T04:04:21.201Z,37.03
2019-02-22T04:06:51.618Z,35.83
2019-02-22T04:09:21.872Z,36.60
2019-02-22T04:11:52.234Z,35.87
2019-02-22T04:14:24.849Z,38.80
2019-02-22T04:16:55.274Z,37.27
2019-02-22T04:19:25.681Z,35.30
2019-02-22T04:21:59.477Z,36.17
2019-02-22T04:24:36.424Z,38.50
2019-02-22T04:27:06.974Z,40.67
2019-02-22T04:29:37.279Z,38.63
2019-02-22T04:32:07.835Z,38.43
2019-02-22T04:34:38.105Z,39.67
2019-02-22T04:37:08.679Z,39.23
2019-02-22T04:39:39.005Z,36.13
2019-02-22T04:42:09.615Z,37.87
2019-02-22T04:44:39.915Z,39.27
2019-02-22T04:47:10.257Z,36.50
2019-02-22T04:49:40.515Z,37.73
2019-02-22T04:52:10.959Z,37.17
2019-02-22T04:54:41.431Z,39.70
2019-02-22T04:57:11.967Z,34.10
2019-02-22T04:59:42.520Z,38.20
2019-02-22T05:02:12.811Z,37.23
2019-02-22T05:04:43.127Z,35.63
2019-02-22T05:07:13.515Z,37.63
2019-02-22T05:09:43.696Z,41.03
2019-02-22T05:12:14.017Z,39.95
2019-02-22T05:14:44.263Z,39.63
2019-02-22T05:17:14.550Z,38.78
2019-02-22T05:19:45.251Z,40.40
2019-02-22T05:22:15.792Z,39.07
2019-02-22T05:27:32.667Z,41.33
2019-02-22T05:30:03.255Z,41.83
2019-02-22T05:32:33.780Z,37.40
2019-02-22T05:35:04.370Z,34.10
2019-02-22T05:37:34.932Z,35.67
2019-02-22T05:42:45.615Z,33.73
2019-02-22T05:45:16.304Z,35.77
2019-02-22T05:47:47.041Z,37.37
2019-02-22T05:50:20.134Z,38.13
2019-02-22T05:52:50.897Z,36.03
2019-02-22T05:55:21.552Z,33.10
2019-02-22T05:57:52.249Z,35.27
2019-02-22T06:00:22.739Z,42.10
2019-02-22T06:02:53.408Z,36.00
2019-02-22T06:05:24.348Z,35.30
2019-02-22T06:07:54.757Z,34.23
2019-02-22T06:10:25.347Z,33.33
2019-02-22T06:12:56.154Z,35.33
2019-02-22T06:15:26.711Z,36.93
2019-02-22T06:17:57.256Z,35.60
2019-02-22T06:20:27.947Z,36.00
2019-02-22T06:22:58.628Z,35.70
2019-02-22T06:25:29.201Z,33.03
2019-02-22T06:27:59.754Z,32.70
2019-02-22T06:30:30.478Z,32.90
2019-02-22T06:33:01.037Z,32.67
2019-02-22T06:35:31.771Z,35.83
2019-02-22T06:38:02.584Z,32.53
2019-02-22T06:40:32.990Z,30.73
2019-02-22T06:43:03.202Z,32.47
2019-02-22T06:45:33.582Z,32.95
2019-02-22T06:48:03.942Z,33.93
2019-02-22T06:50:34.293Z,32.13
2019-02-22T06:53:04.463Z,35.97
2019-02-22T06:55:34.834Z,33.67
2019-02-22T06:58:05.431Z,33.20
2019-02-22T07:00:35.796Z,34.30
2019-02-22T07:03:07.187Z,34.70
2019-02-22T07:05:37.654Z,33.40
2019-02-22T07:08:07.976Z,35.37
2019-02-22T07:11:02.327Z,35.07
2019-02-22T07:13:32.687Z,34.20
2019-02-22T07:16:03.096Z,31.80
2019-02-22T07:18:33.519Z,34.17
2019-02-22T07:21:03.984Z,32.80
2019-02-22T07:23:34.179Z,34.00
2019-02-22T07:26:04.465Z,33.77
2019-02-22T07:28:34.825Z,32.70
2019-02-22T07:31:05.263Z,33.03
2019-02-22T07:33:35.585Z,33.43
2019-02-22T07:36:09.346Z,32.10
2019-02-22T07:38:39.623Z,34.60
2019-02-22T07:41:10.161Z,31.13
2019-02-22T07:43:40.486Z,32.50
2019-02-22T07:46:11.181Z,31.83
2019-02-22T07:48:41.465Z,30.73
2019-02-22T07:51:11.777Z,31.10
2019-02-22T07:53:41.994Z,29.90
2019-02-22T07:56:12.191Z,31.03
2019-02-22T07:58:42.476Z,30.97
2019-02-22T08:01:12.783Z,29.73
2019-02-22T08:03:42.998Z,28.60
2019-02-22T08:06:13.315Z,26.60
2019-02-22T08:08:43.607Z,27.93
2019-02-22T08:11:13.943Z,28.83
2019-02-22T08:13:44.253Z,25.43
2019-02-22T08:16:14.487Z,28.97
2019-02-22T08:18:44.731Z,26.47
2019-02-22T08:21:14.909Z,27.75
2019-02-22T08:23:45.103Z,27.60
2019-02-22T08:26:15.314Z,26.93
2019-02-22T08:28:45.677Z,27.50
2019-02-22T08:31:16.964Z,25.30
2019-02-22T08:33:47.196Z,25.77
2019-02-22T08:36:17.464Z,27.00
2019-02-22T08:38:48.114Z,25.20
2019-02-22T08:41:18.387Z,25.53
2019-02-22T08:43:48.634Z,26.03
2019-02-22T08:46:18.887Z,28.20
2019-02-22T08:48:49.196Z,26.45
2019-02-22T08:51:19.525Z,27.13
2019-02-22T08:53:49.714Z,26.57
2019-02-22T08:56:20.015Z,25.88
2019-02-22T08:58:50.274Z,24.80
2019-02-22T09:01:20.486Z,26.45
2019-02-22T09:03:51.316Z,27.27
2019-02-22T09:06:21.645Z,27.10
2019-02-22T09:08:51.944Z,27.30
2019-02-22T09:12:08.918Z,26.68
2019-02-22T09:14:39.121Z,26.77
2019-02-22T09:17:09.500Z,24.77
2019-02-22T09:19:39.853Z,25.30
2019-02-22T09:22:21.817Z,24.63
2019-02-22T09:24:42.234Z,25.97
2019-02-22T09:27:12.473Z,25.32
2019-02-22T09:29:42.779Z,25.00
2019-02-22T09:32:12.993Z,26.20
2019-02-22T09:34:45.942Z,24.93
2019-02-22T09:37:15.454Z,24.63
2019-02-22T09:39:45.777Z,25.13
2019-02-22T09:42:16.113Z,25.32
2019-02-22T09:44:48.041Z,24.10
2019-02-22T09:47:19.928Z,25.45
2019-02-22T09:49:50.436Z,25.60
2019-02-22T09:52:20.721Z,29.73
2019-02-22T09:54:51.076Z,25.10
2019-02-22T09:57:21.342Z,24.57
2019-02-22T09:59:51.730Z,24.20
2019-02-22T10:02:29.706Z,24.70
2019-02-22T10:05:00.006Z,28.57
2019-02-22T10:07:33.324Z,26.83
2019-02-22T10:10:07.258Z,26.00
2019-02-22T10:12:37.534Z,27.27
2019-02-22T10:15:08.007Z,24.40
2019-02-22T10:17:38.351Z,21.53
2019-02-22T10:20:08.937Z,20.33
2019-02-22T10:22:39.265Z,18.90
2019-02-22T10:25:09.610Z,19.67
2019-02-22T10:27:39.944Z,25.00
2019-02-22T10:30:10.343Z,21.93
2019-02-22T10:32:40.502Z,17.60
2019-02-22T10:35:10.915Z,16.13
2019-02-22T10:37:41.174Z,15.33
2019-02-22T10:40:11.455Z,12.50
2019-02-22T10:42:41.732Z,13.20
2019-02-22T10:45:14.540Z,12.68
2019-02-22T10:47:44.842Z,13.53
2019-02-22T10:50:15.028Z,12.23
2019-02-22T10:52:45.290Z,13.53
2019-02-22T10:55:15.656Z,17.23
2019-02-22T10:57:45.851Z,19.33
2019-02-22T11:00:16.256Z,15.65
2019-02-22T11:02:46.442Z,16.17
2019-02-22T11:05:16.594Z,15.37
2019-02-22T11:07:47.001Z,16.80
2019-02-22T11:10:21.473Z,14.53
2019-02-22T11:12:51.780Z,15.53
2019-02-22T11:15:22.018Z,13.70
2019-02-22T11:17:52.199Z,11.60
2019-02-22T11:20:22.532Z,10.57
2019-02-22T11:22:52.675Z,13.00
2019-02-22T11:25:23.029Z,11.35
2019-02-22T11:27:53.320Z,10.77
2019-02-22T11:30:23.489Z,9.00
2019-02-22T11:32:58.574Z,9.90
2019-02-22T11:35:28.857Z,10.73
2019-02-22T11:37:58.977Z,11.53
2019-02-22T11:40:29.583Z,9.97
2019-02-22T11:43:01.218Z,8.93
2019-02-22T11:45:34.759Z,9.13
2019-02-22T11:48:09.245Z,10.47
2019-02-22T11:50:37.153Z,9.13
2019-02-22T11:53:07.502Z,8.73
2019-02-22T11:55:37.884Z,12.80
2019-02-22T11:58:08.117Z,13.00
2019-02-22T12:00:38.446Z,10.17
2019-02-22T12:03:21.219Z,8.97
2019-02-22T12:05:40.679Z,9.20
2019-02-22T12:08:10.908Z,9.75
2019-02-22T12:10:41.111Z,10.50
2019-02-22T12:13:11.303Z,12.73
2019-02-22T12:15:41.608Z,11.33
2019-02-22T12:18:11.790Z,10.67
2019-02-22T12:20:42.076Z,13.00
2019-02-22T12:23:12.295Z,11.93
2019-02-22T12:25:44.568Z,14.67
2019-02-22T12:28:14.373Z,13.33
2019-02-22T12:30:44.539Z,15.17
2019-02-22T12:33:14.792Z,16.70
2019-02-22T12:35:46.251Z,13.13
2019-02-22T12:38:16.737Z,13.40
2019-02-22T12:40:46.808Z,14.03
2019-02-22T12:43:17.156Z,13.87
2019-02-22T12:45:47.475Z,12.37
2019-02-22T12:48:17.798Z,13.00
2019-02-22T12:50:47.959Z,14.67
2019-02-22T12:53:21.238Z,12.57
2019-02-22T12:55:51.538Z,13.53
2019-02-22T12:58:21.639Z,13.97
2019-02-22T13:00:51.906Z,11.17
2019-02-22T13:03:22.111Z,14.03
2019-02-22T13:05:52.348Z,14.53
2019-02-22T13:08:22.474Z,16.65
2019-02-22T13:10:52.704Z,16.17
2019-02-22T13:13:22.927Z,14.23
2019-02-22T13:15:53.070Z,13.63
2019-02-22T13:18:23.224Z,14.63
2019-02-22T13:20:53.379Z,15.97
2019-02-22T13:23:23.689Z,15.73
2019-02-22T13:25:53.861Z,17.67
2019-02-22T13:28:24.096Z,17.40
2019-02-22T13:30:54.338Z,15.90
2019-02-22T13:33:24.496Z,15.95
2019-02-22T13:35:54.736Z,14.17
2019-02-22T13:38:25.067Z,16.40
2019-02-22T13:40:55.162Z,16.80
2019-02-22T13:43:25.453Z,14.30
2019-02-22T13:45:55.557Z,16.50
2019-02-22T13:48:25.692Z,16.37
2019-02-22T13:50:55.931Z,13.23
2019-02-22T13:53:26.228Z,13.37
2019-02-22T13:55:56.455Z,13.07
2019-02-22T13:58:26.555Z,14.10
2019-02-22T14:00:56.763Z,14.47
2019-02-22T14:03:26.905Z,14.07
2019-02-22T14:05:57.172Z,15.13
2019-02-22T14:08:27.471Z,14.90
2019-02-22T14:10:57.781Z,15.80
2019-02-22T14:13:28.084Z,15.70
2019-02-22T14:15:58.313Z,15.90
2019-02-22T14:18:28.819Z,15.73
2019-02-22T14:21:01.218Z,15.60
2019-02-22T14:23:31.632Z,17.00
2019-02-22T14:26:01.917Z,17.40
2019-02-22T14:28:32.277Z,16.93
2019-02-22T14:31:02.770Z,16.93
2019-02-22T14:33:33.014Z,18.27
2019-02-22T14:36:04.802Z,17.80
2019-02-22T14:38:36.375Z,17.00
2019-02-22T14:41:10.152Z,16.15
2019-02-22T14:43:40.893Z,16.53
2019-02-22T14:46:11.314Z,15.43
2019-02-22T14:48:43.781Z,17.67
2019-02-22T14:51:15.271Z,16.77
2019-02-22T14:53:45.902Z,17.60
2019-02-22T14:56:16.570Z,17.45
2019-02-22T14:58:47.049Z,18.77
2019-02-22T15:01:17.738Z,19.32
2019-02-22T15:03:48.400Z,19.70
2019-02-22T15:06:19.063Z,20.92
2019-02-22T15:08:49.740Z,20.60
2019-02-22T15:11:20.362Z,20.43
2019-02-22T15:13:51.282Z,22.10
2019-02-22T15:16:43.515Z,23.33
2019-02-22T15:19:14.115Z,23.60
2019-02-22T15:21:44.665Z,23.70
2019-02-22T15:24:15.286Z,24.10
2019-02-22T15:26:46.617Z,23.83
2019-02-22T15:29:17.284Z,24.57
2019-02-22T15:31:48.085Z,24.40
2019-02-22T15:34:18.702Z,23.22
2019-02-22T15:36:50.640Z,23.77
2019-02-22T15:39:21.256Z,22.95
2019-02-22T15:41:51.761Z,25.33
2019-02-22T15:44:22.364Z,24.40
2019-02-22T15:46:53.951Z,24.03
2019-02-22T15:49:24.578Z,24.65
2019-02-22T15:51:55.000Z,26.27
2019-02-22T15:54:25.595Z,24.67
2019-02-22T15:56:56.309Z,26.37
2019-02-22T15:59:26.979Z,25.90
2019-02-22T16:01:57.674Z,26.27
2019-02-22T16:04:34.079Z,25.87
2019-02-22T16:07:04.674Z,24.47
2019-02-22T16:09:42.013Z,27.10
2019-02-22T16:12:22.847Z,24.45
2019-02-22T16:14:53.784Z,23.77
2019-02-22T16:17:26.538Z,23.43
2019-02-22T16:19:57.389Z,23.50
2019-02-22T16:22:29.875Z,22.53
2019-02-22T16:25:03.724Z,23.63
2019-02-22T16:27:36.038Z,20.03
2019-02-22T16:30:27.050Z,19.60
2019-02-22T16:33:03.688Z,19.23
2019-02-22T16:35:34.508Z,22.55
2019-02-22T16:38:10.327Z,18.60
2019-02-22T16:40:42.933Z,19.00
2019-02-22T16:43:16.955Z,19.77
2019-02-22T16:45:47.856Z,19.30
2019-02-22T16:48:19.653Z,20.60
2019-02-22T16:50:50.270Z,19.97
2019-02-22T16:53:20.701Z,19.27
2019-02-22T16:55:51.214Z,20.67
2019-02-22T16:58:21.792Z,21.82
2019-02-22T17:00:52.386Z,20.87
2019-02-22T17:03:23.111Z,22.52
2019-02-22T17:05:53.593Z,21.37
2019-02-22T17:08:24.181Z,21.87
2019-02-22T17:10:54.651Z,23.23
2019-02-22T17:13:25.147Z,20.97
2019-02-22T17:15:55.579Z,19.67
2019-02-22T17:18:25.918Z,20.97
2019-02-22T17:20:57.860Z,19.67
2019-02-22T17:23:29.552Z,20.03
2019-02-22T17:25:59.828Z,28.70
2019-02-22T17:28:32.640Z,25.73
2019-02-22T17:31:02.911Z,24.45
2019-02-22T17:33:33.165Z,27.00
2019-02-22T17:36:03.441Z,25.73
2019-02-22T17:38:33.853Z,32.13
2019-02-22T17:41:04.331Z,36.93
2019-02-22T17:43:34.594Z,35.67
2019-02-22T17:46:04.859Z,57.83
2019-02-22T17:48:35.139Z,57.67
2019-02-22T17:51:05.285Z,34.17
2019-02-22T17:53:35.802Z,24.43
2019-02-22T17:56:07.127Z,21.65
2019-02-22T17:58:37.398Z,23.67
2019-02-22T18:01:09.141Z,27.57
2019-02-22T18:03:39.396Z,23.97
2019-02-22T18:06:12.227Z,24.77
2019-02-22T18:08:44.118Z,27.00
2019-02-22T18:11:14.490Z,34.10
2019-02-22T18:13:44.582Z,28.30
2019-02-22T18:16:14.798Z,26.63
2019-02-22T18:18:45.091Z,26.37
2019-02-22T18:21:15.276Z,27.63
2019-02-22T18:23:45.528Z,29.00
2019-02-22T18:26:15.663Z,36.20
2019-02-22T18:28:45.872Z,49.33
2019-02-22T18:31:16.018Z,38.23
2019-02-22T18:33:46.251Z,39.23
2019-02-22T18:36:16.363Z,50.80
2019-02-22T18:38:46.517Z,45.90
2019-02-22T18:41:16.711Z,100.67
2019-02-22T18:43:46.954Z,52.07
2019-02-22T18:46:17.741Z,53.73
2019-02-22T18:48:48.372Z,30.13
2019-02-22T18:51:18.990Z,25.57
2019-02-22T18:53:49.515Z,23.77
2019-02-22T18:56:20.301Z,23.60
2019-02-22T18:58:52.153Z,23.23
2019-02-22T19:01:23.026Z,24.00
2019-02-22T19:03:53.707Z,25.67
2019-02-22T19:06:24.265Z,23.42
2019-02-22T19:08:54.871Z,22.27
2019-02-22T19:11:25.508Z,23.17
2019-02-22T19:13:56.017Z,21.73
2019-02-22T19:16:26.772Z,20.83
2019-02-22T19:18:57.496Z,19.73
2019-02-22T19:21:28.652Z,19.07
2019-02-22T19:24:00.134Z,17.33
2019-02-22T19:26:30.756Z,16.37
2019-02-22T19:31:26.699Z,15.83
2019-02-22T19:33:57.266Z,16.80
2019-02-22T19:36:27.862Z,17.47
2019-02-22T19:38:58.360Z,17.33
2019-02-22T19:41:28.803Z,15.73
2019-02-22T19:43:59.227Z,16.32
2019-02-22T19:46:29.822Z,14.77
2019-02-22T19:49:00.868Z,15.87
2019-02-22T19:51:31.420Z,15.37
2019-02-22T19:54:01.939Z,17.20
2019-02-22T19:56:32.426Z,16.13
2019-02-22T19:59:03.810Z,16.90
2019-02-22T20:01:34.441Z,16.20
2019-02-22T20:04:04.975Z,16.83
2019-02-22T20:06:35.608Z,16.13
2019-02-22T20:09:08.898Z,15.94
2019-02-22T20:11:39.441Z,15.97
2019-02-22T20:14:09.874Z,15.83
2019-02-22T20:16:40.468Z,15.80
2019-02-22T20:19:11.166Z,16.07
2019-02-22T20:21:41.650Z,16.63
2019-02-22T20:24:12.396Z,16.93
2019-02-22T20:26:42.973Z,16.90
2019-02-22T20:29:13.559Z,17.27
2019-02-22T20:31:43.987Z,18.13
2019-02-22T20:34:14.390Z,17.50
2019-02-22T20:36:45.001Z,16.93
2019-02-22T20:39:15.740Z,19.48
2019-02-22T20:41:46.175Z,21.03
2019-02-22T20:44:16.727Z,29.98
2019-02-22T20:46:47.357Z,32.47
2019-02-22T20:49:18.012Z,42.53
2019-02-22T20:51:48.564Z,22.73
2019-02-22T20:54:19.065Z,20.45
2019-02-22T20:56:49.656Z,16.73
2019-02-22T20:59:20.464Z,19.13
2019-02-22T21:01:51.204Z,19.77
2019-02-22T21:04:21.908Z,18.80
2019-02-22T21:06:52.452Z,17.80
2019-02-22T21:09:23.133Z,18.95
2019-02-22T21:11:53.761Z,17.47
2019-02-22T21:14:25.191Z,18.67
2019-02-22T21:16:55.812Z,16.13
2019-02-22T21:19:27.305Z,17.73
2019-02-22T21:21:57.783Z,18.03
2019-02-22T21:24:28.647Z,18.63
2019-02-22T21:26:59.224Z,16.33
2019-02-22T21:29:29.803Z,16.83
2019-02-22T21:32:00.333Z,16.97
2019-02-22T21:34:30.788Z,19.48
2019-02-22T21:37:01.301Z,18.30
2019-02-22T21:39:31.701Z,18.00
2019-02-22T21:42:02.071Z,16.85
2019-02-22T21:44:32.581Z,17.80
2019-02-22T21:47:03.118Z,17.57
2019-02-22T21:49:33.950Z,18.50
2019-02-22T21:52:04.567Z,16.83
2019-02-22T21:54:35.081Z,17.43
2019-02-22T21:57:06.579Z,17.03
2019-02-22T21:59:37.128Z,22.30
2019-02-22T22:02:07.616Z,19.20
2019-02-22T22:04:38.411Z,17.53
2019-02-22T22:07:08.944Z,17.37
2019-02-22T22:09:42.211Z,17.13
2019-02-22T22:12:12.661Z,18.15
2019-02-22T22:14:43.318Z,16.93
2019-02-22T22:17:13.966Z,18.13
2019-02-22T22:19:44.292Z,18.07
2019-02-22T22:22:14.563Z,17.62
2019-02-22T22:24:44.729Z,17.60
2019-02-22T22:27:14.841Z,19.50
2019-02-22T22:29:44.913Z,18.23
2019-02-22T22:32:15.089Z,18.70
2019-02-22T22:34:45.319Z,17.40
2019-02-22T22:37:15.543Z,15.53
2019-02-22T22:39:45.815Z,15.50
2019-02-22T22:42:15.958Z,14.33
2019-02-22T22:44:46.091Z,15.73
2019-02-22T22:47:16.272Z,15.10
2019-02-22T22:49:46.478Z,14.80
2019-02-22T22:52:16.568Z,14.57
2019-02-22T22:54:46.703Z,13.90
2019-02-22T22:57:16.872Z,13.98
2019-02-22T22:59:47.066Z,14.67
2019-02-22T23:02:17.297Z,14.43
2019-02-22T23:04:47.437Z,14.73
2019-02-22T23:07:17.712Z,14.50
2019-02-22T23:09:47.839Z,15.90
2019-02-22T23:12:17.931Z,16.40
2019-02-22T23:14:48.154Z,16.57
2019-02-22T23:17:18.296Z,16.97
2019-02-22T23:19:48.417Z,16.10
2019-02-22T23:22:18.579Z,15.07
2019-02-22T23:24:48.640Z,15.70
2019-02-22T23:27:18.820Z,17.30
2019-02-22T23:29:48.965Z,17.80
2019-02-22T23:32:19.039Z,17.37
2019-02-22T23:34:49.194Z,16.90
2019-02-22T23:37:19.332Z,18.67
2019-02-22T23:39:49.610Z,17.23
2019-02-22T23:42:19.793Z,18.03
2019-02-22T23:44:50.031Z,19.20
2019-02-22T23:47:20.123Z,17.80
2019-02-22T23:49:50.326Z,18.10
2019-02-22T23:52:20.560Z,19.00
2019-02-22T23:54:50.769Z,18.37
2019-02-22T23:57:20.838Z,17.70
2019-02-22T23:59:50.923Z,19.07
